Data for 05/22/2013

Time Sea-Level Adjusted Pressure Absolute Pressure Temperature Relative Humidity Dew Point   
(mb) (inHg) (mb) (inHg) (C) (F) (%) (C) (F)
00:05 1012 29.88 841 24.83 8.6 47.5 63 2.1 35.8
00:10 1012 29.88 841 24.83 8.5 47.4 64 2.2 35.9
00:15 1012 29.88 841 24.83 8.4 47.1 65 2.2 35.9
00:20 1012 29.88 841 24.83 8.4 47.1 65 2.2 35.9
00:25 1012 29.88 841 24.83 8.3 47 65 2.1 35.8
00:30 1012 29.88 841 24.83 8.3 46.9 65 2.1 35.8
00:35 1012 29.88 841 24.83 8.3 46.9 65 2 35.6
00:40 1012 29.88 841 24.83 8.2 46.7 65 2.1 35.8
00:45 1012 29.88 841 24.83 8.1 46.5 66 2.1 35.8
00:50 1012 29.88 841 24.83 8 46.4 66 2.2 35.9
00:55 1012 29.88 841 24.83 8 46.4 66 2.2 35.9
01:00 1012 29.88 841 24.83 8 46.5 66 2.1 35.9
01:05 1012 29.88 842 24.86 8 46.3 67 2.2 36
01:10 1012 29.88 842 24.86 7.9 46.2 67 2.1 35.8
01:15 1012 29.88 842 24.86 7.9 46.2 67 2.2 36
01:20 1013 29.91 842 24.86 7.8 46 68 2.4 36.2
01:25 1013 29.91 842 24.86 7.7 45.8 69 2.3 36.2
01:30 1013 29.91 842 24.86 7.6 45.7 69 2.4 36.2
01:35 1012 29.88 842 24.86 7.7 45.8 69 2.3 36.2
01:40 1012 29.88 842 24.86 7.6 45.7 69 2.3 36.1
01:45 1012 29.88 841 24.83 7.6 45.6 69 2.3 36.1
01:50 1012 29.88 841 24.83 7.5 45.5 70 2.3 36.2
01:55 1012 29.88 842 24.86 7.4 45.3 70 2.4 36.3
02:00 1012 29.88 841 24.83 7.4 45.2 70 2.3 36.1
02:05 1012 29.88 841 24.83 7.3 45.1 71 2.4 36.2
02:10 1012 29.88 841 24.83 7.2 45 71 2.3 36.2
02:15 1012 29.88 841 24.83 7.1 44.9 71 2.3 36.2
02:20 1012 29.88 841 24.83 7.1 44.8 72 2.3 36.2
02:25 1012 29.88 841 24.83 7.1 44.7 72 2.3 36.2
02:30 1012 29.88 841 24.83 6.9 44.5 74 2.5 36.6
02:35 1012 29.88 841 24.83 6.8 44.2 74 2.5 36.5
02:40 1011 29.85 841 24.83 6.7 44.1 75 2.6 36.6
02:45 1011 29.85 841 24.83 6.6 43.8 76 2.7 36.9
02:50 1011 29.85 841 24.83 6.4 43.5 78 2.8 37.1
02:55 1011 29.85 841 24.83 6.3 43.3 78 2.8 37
03:00 1011 29.85 841 24.83 6.2 43.2 79 2.8 37
03:05 1011 29.85 840 24.81 6.1 43 79 2.8 37.1
03:10 1011 29.85 840 24.81 6 42.8 79 2.7 36.9
03:15 1011 29.85 840 24.81 5.9 42.6 80 2.7 36.9
03:20 1011 29.85 840 24.81 5.9 42.6 81 2.8 37
03:25 1011 29.85 840 24.81 5.8 42.4 81 2.8 37
03:30 1011 29.85 840 24.81 5.8 42.4 81 2.7 36.9
03:35 1011 29.85 841 24.83 5.7 42.3 82 2.8 37.1
03:40 1011 29.85 841 24.83 5.6 42.2 82 2.8 37
03:45 1011 29.85 841 24.83 5.6 42.1 82 2.8 37
03:50 1011 29.85 841 24.83 5.6 42.1 82 2.8 37
03:55 1011 29.85 840 24.81 5.5 41.9 83 2.8 37.1
04:00 1011 29.85 840 24.81 5.4 41.8 83 2.8 37.1
04:05 1011 29.85 840 24.81 5.4 41.7 84 2.9 37.2
04:10 1011 29.85 840 24.81 5.3 41.6 84 2.9 37.1
04:15 1011 29.85 840 24.81 5.4 41.7 84 2.9 37.2
04:20 1011 29.85 840 24.81 5.4 41.7 84 2.8 37.1
04:25 1011 29.85 840 24.81 5.4 41.8 84 2.9 37.2
04:30 1011 29.85 840 24.81 5.4 41.7 84 2.9 37.3
04:35 1011 29.85 840 24.81 5.4 41.7 84 3 37.3
04:40 1011 29.85 840 24.81 5.4 41.7 83 2.8 37.1
04:45 1011 29.85 840 24.81 5.4 41.8 84 2.9 37.2
04:50 1011 29.85 840 24.81 5.4 41.8 83 2.8 37.1
04:55 1011 29.85 840 24.81 5.4 41.8 84 3 37.4
05:00 1011 29.85 840 24.81 5.4 41.7 83 2.8 37
05:05 1011 29.85 840 24.81 5.5 41.8 83 2.9 37.2
05:10 1011 29.85 840 24.81 5.3 41.6 84 2.8 37.1
05:15 1010 29.83 840 24.81 5.3 41.6 84 2.8 37
05:20 1011 29.85 840 24.81 5.4 41.7 83 2.8 37
05:25 1010 29.83 840 24.81 5.4 41.7 83 2.8 37.1
05:30 1010 29.83 840 24.81 5.4 41.7 84 2.8 37.1
05:35 1010 29.83 839 24.78 5.4 41.8 83 2.8 37
05:40 1010 29.83 840 24.81 5.5 42 82 2.8 37
05:45 1010 29.83 839 24.78 5.6 42 82 2.7 36.9
05:50 1010 29.83 840 24.81 5.6 42 82 2.7 36.9
05:55 1010 29.83 840 24.81 5.6 42.1 82 2.8 37
06:00 1010 29.83 839 24.78 5.6 42.1 82 2.7 36.8
06:05 1010 29.83 840 24.81 5.5 42 83 2.8 37
06:10 1011 29.85 840 24.81 5.5 41.8 83 2.8 37
06:15 1011 29.85 840 24.81 5.4 41.7 83 2.8 37.1
06:20 1011 29.85 840 24.81 5.4 41.7 83 2.7 36.9
06:25 1011 29.85 840 24.81 5.4 41.8 83 2.8 37
06:30 1011 29.85 840 24.81 5.4 41.8 82 2.7 36.9
06:35 1011 29.85 840 24.81 5.5 41.9 82 2.7 36.9
06:40 1011 29.85 840 24.81 5.6 42.1 82 2.7 36.9
06:45 1011 29.85 840 24.81 5.7 42.2 81 2.7 36.9
06:50 1011 29.85 840 24.81 5.7 42.2 82 2.8 37
06:55 1011 29.85 840 24.81 5.7 42.2 81 2.7 36.9
07:00 1011 29.85 840 24.81 5.9 42.6 80 2.7 36.9
07:05 1011 29.85 840 24.81 5.9 42.7 80 2.8 37
07:10 1011 29.85 841 24.83 6 42.7 80 2.7 36.9
07:15 1011 29.85 841 24.83 5.9 42.6 80 2.8 37
07:20 1011 29.85 841 24.83 5.9 42.7 80 2.7 36.8
07:25 1011 29.85 841 24.83 6 42.7 80 2.8 37
07:30 1011 29.85 841 24.83 5.9 42.6 80 2.6 36.8
07:35 1011 29.85 841 24.83 5.9 42.6 80 2.7 36.9
07:40 1011 29.85 840 24.81 5.8 42.5 80 2.7 36.8
07:45 1011 29.85 840 24.81 5.9 42.5 80 2.7 36.8
07:50 1011 29.85 840 24.81 5.8 42.5 80 2.6 36.7
07:55 1011 29.85 840 24.81 5.9 42.6 81 2.8 37
08:00 1011 29.85 840 24.81 5.8 42.5 81 2.8 37.1
08:05 1011 29.85 840 24.81 5.9 42.6 80 2.7 36.9
08:10 1011 29.85 840 24.81 5.9 42.7 81 2.9 37.2
08:15 1011 29.85 840 24.81 5.9 42.6 80 2.8 37
08:20 1011 29.85 840 24.81 6 42.8 80 2.8 37
08:25 1011 29.85 840 24.81 6 42.9 81 2.9 37.3
08:30 1011 29.85 840 24.81 6 42.9 80 2.9 37.2
08:35 1011 29.85 840 24.81 6 42.8 81 3 37.3
08:40 1011 29.85 840 24.81 6 42.8 81 2.9 37.3
08:45 1011 29.85 840 24.81 6 42.8 81 3.1 37.5
08:50 1011 29.85 840 24.81 5.8 42.5 82 3 37.4
08:55 1011 29.85 840 24.81 5.8 42.4 82 2.9 37.2
09:00 1011 29.85 840 24.81 5.8 42.5 81 2.9 37.2
09:05 1011 29.85 840 24.81 5.8 42.5 81 2.8 37.1
09:10 1011 29.85 840 24.81 5.8 42.5 81 2.8 37.1
09:15 1011 29.85 840 24.81 5.8 42.4 82 2.9 37.2
09:20 1011 29.85 840 24.81 5.7 42.3 81 2.8 37.1
09:25 1011 29.85 840 24.81 5.8 42.5 81 2.8 37.1
09:30 1011 29.85 840 24.81 5.9 42.5 82 2.9 37.3
09:35 1011 29.85 840 24.81 5.8 42.5 81 2.9 37.2
09:40 1011 29.85 840 24.81 5.9 42.6 81 2.9 37.2
09:45 1011 29.85 840 24.81 6 42.8 80 2.8 37.1
09:50 1011 29.85 840 24.81 6.2 43.1 79 2.8 37
09:55 1011 29.85 840 24.81 6.3 43.4 78 2.9 37.1
10:00 1011 29.85 840 24.81 6.3 43.4 78 2.9 37.2
10:05 1011 29.85 840 24.81 6.4 43.5 78 2.8 37
10:10 1011 29.85 840 24.81 6.5 43.6 78 2.9 37.2
10:15 1011 29.85 840 24.81 6.4 43.6 78 2.8 37.1
10:20 1011 29.85 840 24.81 6.4 43.5 79 2.9 37.3
10:25 1011 29.85 840 24.81 6.4 43.5 79 2.9 37.3
10:30 1011 29.85 840 24.81 6.4 43.5 78 2.9 37.3
10:35 1011 29.85 840 24.81 6.3 43.4 79 2.9 37.2
10:40 1011 29.85 840 24.81 6.3 43.4 79 2.9 37.2
10:45 1011 29.85 840 24.81 6.2 43.1 80 3 37.4
10:50 1011 29.85 840 24.81 6.1 43 80 2.9 37.2
10:55 1011 29.85 840 24.81 6.2 43.1 80 3 37.4
11:00 1011 29.85 840 24.81 6.4 43.5 79 3 37.4
11:05 1011 29.85 840 24.81 6.3 43.3 80 3.1 37.5
11:10 1011 29.85 840 24.81 6.4 43.4 79 3.1 37.5
11:15 1011 29.85 840 24.81 6.5 43.7 79 3.2 37.7
11:20 1011 29.85 840 24.81 6.7 44.1 76 2.8 37.1
11:25 1011 29.85 840 24.81 7.2 45 74 3 37.3
11:30 1011 29.85 840 24.81 7.3 45.2 75 3.2 37.8
11:35 1011 29.85 840 24.81 7.3 45.2 75 3.2 37.8
11:40 1011 29.85 840 24.81 7.5 45.4 74 3.1 37.6
11:45 1011 29.85 840 24.81 7.6 45.6 74 3.2 37.7
11:50 1011 29.85 840 24.81 7.6 45.8 73 3.1 37.5
11:55 1011 29.85 840 24.81 7.9 46.3 73 3.3 38
12:00 1011 29.85 840 24.81 8.3 46.9 71 3.3 37.9
12:05 1011 29.85 840 24.81 8.4 47.2 70 3.2 37.8
12:10 1011 29.85 840 24.81 8.4 47.1 70 3.3 37.9
12:15 1011 29.85 840 24.81 8.2 46.8 71 3.2 37.8
12:20 1011 29.85 840 24.81 8.3 47 70 3.2 37.8
12:25 1011 29.85 840 24.81 8.5 47.3 70 3.4 38.1
12:30 1011 29.85 840 24.81 8.5 47.2 71 3.5 38.2
12:35 1011 29.85 840 24.81 8.3 46.9 71 3.3 38
12:40 1011 29.85 840 24.81 8.4 47 69 3 37.4
12:45 1011 29.85 840 24.81 8.5 47.3 70 3.3 37.9
12:50 1011 29.85 840 24.81 8.4 47.2 69 3.1 37.6
12:55 1011 29.85 840 24.81 8.6 47.4 69 3.3 37.9
13:00 1011 29.85 840 24.81 8.5 47.2 69 3.2 37.7
13:05 1011 29.85 840 24.81 8.4 47.1 70 3.2 37.7
13:10 1011 29.85 840 24.81 8.4 47.1 70 3.2 37.7
13:15 1011 29.85 840 24.81 8.4 47.2 69 3.1 37.7
13:20 1011 29.85 840 24.81 8.4 47.2 70 3.3 37.9
13:25 1011 29.85 840 24.81 8.4 47.2 70 3.2 37.8
13:30 1011 29.85 840 24.81 8.5 47.4 69 3.1 37.6
13:35 1011 29.85 840 24.81 8.7 47.6 68 3.2 37.7
13:40 1011 29.85 840 24.81 8.8 47.8 69 3.4 38.1
13:45 1010 29.83 840 24.81 8.8 47.8 69 3.4 38
13:50 1010 29.83 839 24.78 9.2 48.5 67 3.3 37.9
13:55 1010 29.83 839 24.78 9.6 49.4 66 3.5 38.4
14:00 1010 29.83 840 24.81 9.8 49.6 66 3.8 38.8
14:05 1011 29.85 840 24.81 9.8 49.6 67 4 39.2
14:10 1011 29.85 840 24.81 9.7 49.5 67 4 39.2
14:15 1011 29.85 840 24.81 9.5 49.2 68 4 39.2
14:20 1011 29.85 840 24.81 9.4 48.9 68 3.8 38.9
14:25 1011 29.85 840 24.81 9.4 48.9 68 3.9 38.9
14:30 1011 29.85 840 24.81 9.5 49.2 68 3.9 39.1
14:35 1010 29.83 840 24.81 9.8 49.6 68 4.1 39.3
14:40 1010 29.83 839 24.78 9.9 49.8 67 4.1 39.4
14:45 1011 29.85 840 24.81 9.9 49.8 68 4.3 39.8
14:50 1011 29.85 840 24.81 9.9 49.8 70 4.7 40.4
14:55 1012 29.88 841 24.83 9.7 49.5 70 4.6 40.3
15:00 1011 29.85 841 24.83 9.7 49.5 71 4.6 40.4
15:05 1011 29.85 841 24.83 9.8 49.6 71 4.8 40.7
15:10 1011 29.85 840 24.81 9.6 49.2 77 5.7 42.2
15:15 1011 29.85 840 24.81 9.4 49 75 5.2 41.4
15:20 1011 29.85 841 24.83 9.7 49.4 73 5.1 41.2
15:25 1011 29.85 841 24.83 9.8 49.7 72 5.1 41.1
15:30 1012 29.88 841 24.83 9.9 49.9 72 5 41.1
15:35 1012 29.88 841 24.83 9.9 49.7 75 5.6 42
15:40 1012 29.88 841 24.83 9.8 49.6 76 5.8 42.5
15:45 1012 29.88 841 24.83 9.8 49.7 76 5.8 42.5
15:50 1011 29.85 841 24.83 10.2 50.3 76 6.1 43
15:55 1011 29.85 840 24.81 10.5 50.9 72 5.8 42.4
16:00 1011 29.85 841 24.83 10.7 51.3 72 5.9 42.6
16:05 1011 29.85 840 24.81 11 51.7 70 5.8 42.5
16:10 1011 29.85 840 24.81 11.1 52 70 5.8 42.5
16:15 1011 29.85 840 24.81 11.2 52.1 67 5.4 41.8
16:20 1011 29.85 840 24.81 11.3 52.3 68 5.5 42
16:25 1011 29.85 840 24.81 11.4 52.4 67 5.6 42.1
16:30 1011 29.85 840 24.81 11.5 52.7 66 5.3 41.6
16:35 1011 29.85 840 24.81 11.6 52.9 65 5.3 41.6
16:40 1011 29.85 840 24.81 11.6 52.8 67 5.6 42.1
16:45 1011 29.85 840 24.81 11.6 52.8 66 5.4 41.8
16:50 1011 29.85 840 24.81 11.7 53 65 5.3 41.5
16:55 1011 29.85 840 24.81 11.6 53 66 5.5 42
17:00 1011 29.85 840 24.81 11.8 53.2 65 5.4 41.7
17:05 1011 29.85 840 24.81 11.9 53.4 65 5.6 42.1
17:10 1011 29.85 840 24.81 11.9 53.4 65 5.5 41.8
17:15 1012 29.88 841 24.83 11.7 53.1 67 5.8 42.4
17:20 1012 29.88 841 24.83 11.4 52.5 69 6.1 42.9
17:25 1012 29.88 842 24.86 11 51.8 73 6.4 43.5
17:30 1012 29.88 842 24.86 10.7 51.2 74 6.3 43.3
17:35 1012 29.88 842 24.86 10.4 50.8 77 6.7 44
17:40 1012 29.88 841 24.83 10.1 50.1 81 7 44.6
17:45 1011 29.85 840 24.81 9.8 49.7 80 6.5 43.7
17:50 1011 29.85 840 24.81 9.8 49.6 82 6.9 44.4
17:55 1011 29.85 840 24.81 9.8 49.6 80 6.5 43.7
18:00 1011 29.85 841 24.83 10 50.1 79 6.6 43.8
18:05 1011 29.85 840 24.81 10.3 50.5 76 6.3 43.4
18:10 1011 29.85 840 24.81 10.6 51 75 6.3 43.3
18:15 1011 29.85 841 24.83 10.7 51.3 75 6.5 43.8
18:20 1011 29.85 841 24.83 10.8 51.5 73 6.3 43.3
18:25 1011 29.85 841 24.83 11 51.8 73 6.4 43.5
18:30 1012 29.88 841 24.83 11 51.9 72 6.3 43.3
18:35 1012 29.88 841 24.83 11 51.9 73 6.4 43.5
18:40 1011 29.85 841 24.83 11 51.9 72 6.3 43.3
18:45 1011 29.85 840 24.81 11 51.8 73 6.3 43.4
18:50 1011 29.85 841 24.83 11 51.8 73 6.4 43.4
18:55 1011 29.85 841 24.83 10.9 51.6 74 6.5 43.7
19:00 1011 29.85 841 24.83 10.9 51.7 73 6.3 43.4
19:05 1011 29.85 840 24.81 10.9 51.7 74 6.5 43.6
19:10 1011 29.85 840 24.81 10.9 51.5 73 6.3 43.4
19:15 1011 29.85 840 24.81 10.9 51.5 74 6.4 43.6
19:20 1011 29.85 840 24.81 10.8 51.5 73 6.1 43
19:25 1011 29.85 841 24.83 10.8 51.4 73 6.2 43.1
19:30 1012 29.88 841 24.83 10.8 51.4 73 6.1 43
19:35 1012 29.88 841 24.83 10.8 51.4 73 6.2 43.1
19:40 1012 29.88 841 24.83 10.8 51.4 73 6.2 43.2
19:45 1012 29.88 841 24.83 10.7 51.3 74 6.2 43.2
19:50 1012 29.88 841 24.83 10.7 51.2 74 6.3 43.4
19:55 1012 29.88 842 24.86 10.6 51.1 75 6.3 43.4
20:00 1012 29.88 841 24.83 10.7 51.3 75 6.5 43.7
20:05 1012 29.88 841 24.83 10.7 51.3 75 6.5 43.6
20:10 1012 29.88 841 24.83 10.8 51.5 75 6.6 43.8
20:15 1012 29.88 841 24.83 10.8 51.5 75 6.5 43.8
20:20 1012 29.88 841 24.83 10.8 51.5 75 6.6 43.8
20:25 1012 29.88 841 24.83 10.8 51.4 76 6.7 44.1
20:30 1012 29.88 841 24.83 10.7 51.3 76 6.7 44.1
20:35 1012 29.88 841 24.83 10.7 51.3 76 6.7 44.1
20:40 1012 29.88 841 24.83 10.8 51.4 76 6.7 44
20:45 1012 29.88 841 24.83 10.8 51.5 75 6.7 44
20:50 1012 29.88 841 24.83 10.9 51.6 75 6.6 44
20:55 1012 29.88 841 24.83 10.8 51.5 76 6.8 44.2
21:00 1012 29.88 842 24.86 10.7 51.3 75 6.6 43.8
21:05 1012 29.88 842 24.86 10.8 51.4 75 6.6 43.8
21:10 1012 29.88 842 24.86 10.7 51.3 75 6.4 43.6
21:15 1013 29.91 842 24.86 10.7 51.2 75 6.4 43.5
21:20 1013 29.91 842 24.86 10.6 51 75 6.3 43.4
21:25 1013 29.91 842 24.86 10.5 50.9 75 6.3 43.4
21:30 1013 29.91 842 24.86 10.4 50.8 76 6.4 43.5
21:35 1013 29.91 842 24.86 10.4 50.6 76 6.4 43.5
21:40 1013 29.91 842 24.86 10.3 50.5 77 6.4 43.6
21:45 1013 29.91 842 24.86 10.2 50.3 77 6.4 43.5
21:50 1013 29.91 842 24.86 10.1 50.1 78 6.3 43.4
21:55 1013 29.91 842 24.86 10 50 78 6.4 43.5
22:00 1013 29.91 842 24.86 9.9 49.9 79 6.4 43.5
22:05 1013 29.91 842 24.86 9.8 49.7 78 6.2 43.2
22:10 1013 29.91 842 24.86 9.8 49.7 78 6.3 43.3
22:15 1013 29.91 842 24.86 9.7 49.5 79 6.3 43.3
22:20 1013 29.91 842 24.86 9.6 49.3 79 6.2 43.2
22:25 1013 29.91 842 24.86 9.6 49.2 79 6.1 43
22:30 1012 29.88 842 24.86 9.5 49 79 6.1 42.9
22:35 1013 29.91 842 24.86 9.5 49 79 6 42.8
22:40 1013 29.91 842 24.86 9.4 49 79 6 42.7
22:45 1012 29.88 842 24.86 9.4 48.9 79 5.9 42.7
22:50 1013 29.91 842 24.86 9.4 48.9 79 5.9 42.6
22:55 1013 29.91 842 24.86 9.4 48.8 79 5.8 42.5
23:00 1013 29.91 842 24.86 9.4 48.8 78 5.8 42.5
23:05 1013 29.91 842 24.86 9.3 48.7 79 5.8 42.5
23:10 1013 29.91 842 24.86 9.2 48.6 79 5.9 42.5
23:15 1013 29.91 842 24.86 9.1 48.4 80 5.9 42.6
23:20 1013 29.91 842 24.86 9 48.1 81 6 42.7
23:25 1013 29.91 842 24.86 8.9 48 81 5.8 42.5
23:30 1013 29.91 842 24.86 8.9 47.9 81 5.8 42.5
23:35 1013 29.91 842 24.86 8.9 48 81 5.8 42.4
23:40 1013 29.91 842 24.86 8.8 47.9 81 5.8 42.5
23:45 1013 29.91 842 24.86 8.8 47.8 81 5.7 42.3
23:50 1013 29.91 842 24.86 8.8 47.8 81 5.7 42.3
23:55 1013 29.91 842 24.86 8.7 47.7 81 5.7 42.3
24:00 1012 29.88 841 24.83 8.7 47.6 82 5.7 42.3